createdAt,value
2023-10-13T00:00:44.017Z,25.90
2023-10-13T00:03:16.517Z,26.77
2023-10-13T00:06:04.361Z,25.73
2023-10-13T00:08:51.644Z,26.85
2023-10-13T00:11:37.886Z,28.85
2023-10-13T00:14:06.056Z,28.45
2023-10-13T00:16:35.965Z,29.67
2023-10-13T00:19:07.126Z,29.73
2023-10-13T00:21:36.921Z,29.58
2023-10-13T00:24:12.605Z,31.40
2023-10-13T00:26:44.252Z,29.80
2023-10-13T00:29:17.450Z,30.98
2023-10-13T00:31:49.669Z,33.30
2023-10-13T00:34:17.633Z,31.50
2023-10-13T00:37:04.693Z,31.17
2023-10-13T00:39:32.284Z,34.45
2023-10-13T00:42:07.590Z,33.33
2023-10-13T00:44:50.224Z,33.78
2023-10-13T00:47:38.088Z,37.50
2023-10-13T00:50:06.408Z,37.55
2023-10-13T00:52:37.226Z,35.67
2023-10-13T00:55:06.692Z,34.05
2023-10-13T00:57:34.808Z,34.72
2023-10-13T01:00:13.922Z,35.28
2023-10-13T01:02:41.773Z,36.97
2023-10-13T01:05:21.100Z,36.78
2023-10-13T01:07:55.470Z,38.17
2023-10-13T01:10:33.502Z,38.97
2023-10-13T01:13:03.844Z,37.38
2023-10-13T01:15:34.244Z,37.97
2023-10-13T01:18:13.456Z,36.72
2023-10-13T01:20:46.934Z,37.80
2023-10-13T01:25:49.086Z,35.42
2023-10-13T01:28:19.507Z,39.33
2023-10-13T01:30:53.424Z,36.05
2023-10-13T01:33:28.469Z,33.75
2023-10-13T01:35:59.905Z,32.65
2023-10-13T01:38:28.660Z,33.15
2023-10-13T01:40:57.984Z,33.22
2023-10-13T01:43:26.215Z,31.67
2023-10-13T01:45:54.849Z,30.25
2023-10-13T01:48:22.935Z,30.30
2023-10-13T01:50:57.102Z,29.63
2023-10-13T01:53:25.150Z,29.27
2023-10-13T01:55:52.725Z,30.58
2023-10-13T01:58:24.183Z,30.77
2023-10-13T02:00:52.620Z,30.67
2023-10-13T02:03:22.639Z,30.88
2023-10-13T02:05:50.993Z,28.30
2023-10-13T02:08:25.477Z,29.27
2023-10-13T02:10:57.822Z,28.38
2023-10-13T02:13:26.839Z,28.23
2023-10-13T02:15:57.956Z,27.55
2023-10-13T02:18:29.465Z,28.08
2023-10-13T02:21:05.506Z,28.13
2023-10-13T02:23:33.156Z,27.23
2023-10-13T02:26:03.551Z,27.08
2023-10-13T02:28:34.617Z,27.27
2023-10-13T02:31:06.329Z,28.52
2023-10-13T02:33:35.436Z,27.38
2023-10-13T02:36:06.371Z,27.17
2023-10-13T02:38:36.116Z,28.13
2023-10-13T02:41:07.167Z,25.60
2023-10-13T02:43:39.002Z,26.67
2023-10-13T02:46:08.295Z,27.60
2023-10-13T02:48:41.802Z,25.92
2023-10-13T02:53:53.972Z,26.95
2023-10-13T02:56:22.002Z,26.70
2023-10-13T02:59:06.379Z,27.60
2023-10-13T03:01:37.521Z,28.40
2023-10-13T03:04:10.176Z,28.95
2023-10-13T03:06:41.384Z,27.63
2023-10-13T03:09:18.983Z,30.08
2023-10-13T03:11:52.171Z,28.38
2023-10-13T03:14:33.420Z,29.73
2023-10-13T03:17:04.498Z,28.33
2023-10-13T03:19:35.833Z,27.52
2023-10-13T03:22:12.988Z,27.98
2023-10-13T03:24:50.373Z,28.75
2023-10-13T03:27:24.612Z,28.02
2023-10-13T03:29:56.227Z,30.50
2023-10-13T03:32:27.897Z,27.33
2023-10-13T03:34:55.608Z,27.90
2023-10-13T03:37:42.172Z,29.73
2023-10-13T03:40:24.247Z,30.30
2023-10-13T03:43:06.621Z,27.45
2023-10-13T03:46:02.479Z,30.20
2023-10-13T03:48:30.880Z,29.30
2023-10-13T03:51:04.773Z,28.73
2023-10-13T03:53:36.967Z,28.20
2023-10-13T03:56:09.453Z,28.08
2023-10-13T03:58:40.090Z,28.95
2023-10-13T04:01:08.170Z,28.25
2023-10-13T04:03:38.910Z,30.25
2023-10-13T04:06:17.188Z,28.42
2023-10-13T04:08:44.766Z,27.35
2023-10-13T04:11:30.963Z,29.77
2023-10-13T04:14:17.609Z,26.40
2023-10-13T04:16:55.870Z,28.27
2023-10-13T04:19:30.481Z,29.60
2023-10-13T04:21:59.302Z,26.90
2023-10-13T04:25:01.213Z,29.45
2023-10-13T04:27:45.624Z,29.85
2023-10-13T04:30:20.894Z,31.65
2023-10-13T04:33:07.443Z,30.30
2023-10-13T04:35:48.751Z,29.67
2023-10-13T04:38:22.118Z,30.33
2023-10-13T04:41:02.951Z,30.15
2023-10-13T04:43:34.580Z,30.92
2023-10-13T04:46:22.618Z,30.83
2023-10-13T04:48:50.289Z,30.88
2023-10-13T04:51:35.579Z,29.15
2023-10-13T04:54:14.092Z,30.48
2023-10-13T04:57:00.520Z,31.83
2023-10-13T04:59:47.559Z,31.95
2023-10-13T05:02:45.117Z,30.63
2023-10-13T05:05:15.628Z,30.70
2023-10-13T05:08:02.191Z,33.55
2023-10-13T05:10:49.330Z,32.33
2023-10-13T05:13:50.467Z,31.98
2023-10-13T05:17:02.644Z,32.30
2023-10-13T05:20:15.980Z,31.05
2023-10-13T05:23:02.632Z,31.08
2023-10-13T05:25:48.929Z,33.60
2023-10-13T05:28:36.042Z,33.10
2023-10-13T05:31:41.535Z,34.45
2023-10-13T05:34:28.304Z,34.72
2023-10-13T05:37:33.465Z,31.52
2023-10-13T05:40:38.709Z,32.55
2023-10-13T05:43:24.927Z,33.55
2023-10-13T05:46:15.424Z,34.63
2023-10-13T05:49:03.698Z,32.70
2023-10-13T05:51:45.135Z,33.08
2023-10-13T05:54:16.375Z,31.55
2023-10-13T05:57:08.662Z,31.00
2023-10-13T05:59:56.987Z,35.25
2023-10-13T06:02:44.350Z,34.92
2023-10-13T06:05:32.304Z,35.60
2023-10-13T06:08:18.483Z,35.10
2023-10-13T06:11:04.652Z,35.45
2023-10-13T06:13:50.865Z,32.17
2023-10-13T06:16:38.069Z,33.28
2023-10-13T06:19:24.776Z,32.72
2023-10-13T06:22:11.053Z,31.92
2023-10-13T06:24:57.169Z,34.25
2023-10-13T06:27:44.410Z,33.00
2023-10-13T06:30:13.633Z,32.67
2023-10-13T06:32:42.008Z,34.00
2023-10-13T06:35:09.750Z,34.95
2023-10-13T06:37:43.465Z,35.08
2023-10-13T06:40:22.628Z,37.97
2023-10-13T06:42:50.905Z,40.25
2023-10-13T06:45:19.459Z,41.30
2023-10-13T06:47:47.658Z,39.47
2023-10-13T06:50:16.968Z,42.97
2023-10-13T06:52:45.099Z,45.80
2023-10-13T06:55:18.609Z,47.88
2023-10-13T07:00:34.500Z,50.45
2023-10-13T07:03:19.634Z,48.97
2023-10-13T07:05:48.931Z,54.10
2023-10-13T07:08:25.145Z,51.38
2023-10-13T07:11:04.180Z,51.40
2023-10-13T07:13:32.444Z,55.88
2023-10-13T07:18:38.665Z,53.65
2023-10-13T07:21:12.412Z,50.83
2023-10-13T07:23:40.585Z,52.20
2023-10-13T07:26:09.705Z,52.15
2023-10-13T07:28:37.977Z,56.92
2023-10-13T07:31:06.477Z,55.88
2023-10-13T07:33:36.002Z,58.38
2023-10-13T07:36:16.553Z,53.65
2023-10-13T07:38:58.286Z,52.53
2023-10-13T07:41:32.989Z,52.72
2023-10-13T07:44:00.709Z,52.92
2023-10-13T07:46:32.653Z,55.33
2023-10-13T07:49:20.981Z,57.25
2023-10-13T07:51:50.473Z,57.35
2023-10-13T07:54:27.846Z,60.22
2023-10-13T07:56:56.316Z,60.08
2023-10-13T07:59:25.056Z,62.97
2023-10-13T08:02:12.654Z,62.75
2023-10-13T08:04:40.801Z,61.38
2023-10-13T08:07:14.766Z,63.03
2023-10-13T08:09:44.589Z,64.13
2023-10-13T08:12:13.262Z,63.83
2023-10-13T08:14:41.910Z,59.30
2023-10-13T08:17:13.875Z,61.00
2023-10-13T08:19:48.116Z,62.75
2023-10-13T08:22:21.683Z,65.45
2023-10-13T08:24:50.599Z,61.67
2023-10-13T08:27:35.868Z,62.92
2023-10-13T08:30:23.832Z,63.60
2023-10-13T08:33:01.122Z,65.03
2023-10-13T08:35:35.872Z,64.28
2023-10-13T08:38:30.590Z,63.15
2023-10-13T08:41:18.597Z,62.13
2023-10-13T08:43:54.241Z,59.70
2023-10-13T08:46:32.612Z,58.50
2023-10-13T08:49:19.919Z,58.22
2023-10-13T08:51:50.895Z,59.17
2023-10-13T08:54:35.542Z,57.28
2023-10-13T08:57:26.680Z,59.10
2023-10-13T08:59:54.724Z,58.25
2023-10-13T09:02:44.065Z,57.08
2023-10-13T09:05:31.552Z,60.72
2023-10-13T09:08:10.267Z,60.17
2023-10-13T09:11:06.893Z,62.38
2023-10-13T09:13:45.590Z,63.95
2023-10-13T09:16:18.870Z,65.85
2023-10-13T09:18:47.893Z,59.58
2023-10-13T09:21:35.523Z,59.85
2023-10-13T09:24:23.953Z,62.35
2023-10-13T09:26:57.098Z,60.58
2023-10-13T09:29:26.105Z,63.88
2023-10-13T09:32:03.688Z,58.35
2023-10-13T09:34:41.900Z,59.08
2023-10-13T09:37:13.103Z,55.83
2023-10-13T09:39:54.269Z,57.00
2023-10-13T09:42:24.977Z,55.08
2023-10-13T09:44:53.326Z,52.92
2023-10-13T09:47:31.783Z,50.03
2023-10-13T09:50:06.605Z,48.03
2023-10-13T09:52:38.661Z,46.30
2023-10-13T09:55:19.529Z,43.67
2023-10-13T09:58:00.604Z,48.15
2023-10-13T10:00:36.033Z,46.88
2023-10-13T10:03:16.760Z,48.72
2023-10-13T10:06:04.430Z,52.10
2023-10-13T10:08:37.796Z,50.15
2023-10-13T10:11:27.603Z,48.75
2023-10-13T10:14:19.028Z,51.58
2023-10-13T10:17:10.712Z,52.30
2023-10-13T10:19:49.099Z,54.63
2023-10-13T10:22:34.490Z,51.28
2023-10-13T10:25:03.873Z,47.80
2023-10-13T10:27:34.179Z,51.20
2023-10-13T10:30:05.351Z,46.90
2023-10-13T10:32:41.668Z,54.53
2023-10-13T10:35:21.826Z,46.35
2023-10-13T10:37:49.790Z,43.92
2023-10-13T10:40:35.480Z,43.85
2023-10-13T10:43:25.376Z,43.85
2023-10-13T10:46:03.486Z,43.33
2023-10-13T10:48:35.697Z,41.17
2023-10-13T10:51:22.332Z,36.22
2023-10-13T10:53:52.419Z,40.45
2023-10-13T10:56:26.211Z,37.78
2023-10-13T10:59:01.276Z,36.50
2023-10-13T11:01:39.699Z,36.53
2023-10-13T11:04:09.507Z,31.15
2023-10-13T11:06:44.083Z,37.65
2023-10-13T11:09:30.247Z,33.00
2023-10-13T11:12:15.773Z,24.92
2023-10-13T11:14:50.029Z,24.67
2023-10-13T11:17:30.527Z,24.58
2023-10-13T11:19:58.267Z,24.52
2023-10-13T11:22:59.235Z,25.17
2023-10-13T11:25:33.359Z,24.45
2023-10-13T11:28:11.572Z,23.60
2023-10-13T11:30:39.126Z,26.38
2023-10-13T11:33:09.491Z,23.80
2023-10-13T11:35:54.208Z,26.13
2023-10-13T11:38:28.714Z,24.27
2023-10-13T11:41:08.577Z,24.25
2023-10-13T11:43:50.961Z,22.35
2023-10-13T11:46:36.945Z,24.13
2023-10-13T11:49:16.601Z,23.73
2023-10-13T11:51:46.494Z,21.85
2023-10-13T11:54:16.423Z,22.60
2023-10-13T11:56:43.994Z,21.05
2023-10-13T11:59:25.219Z,21.90
2023-10-13T12:02:11.716Z,20.02
2023-10-13T12:05:05.257Z,21.73
2023-10-13T12:07:49.755Z,20.13
2023-10-13T12:10:34.351Z,21.30
2023-10-13T12:13:11.299Z,22.77
2023-10-13T12:15:49.981Z,24.52
2023-10-13T12:18:17.905Z,24.33
2023-10-13T12:20:50.574Z,24.92
2023-10-13T12:25:56.441Z,23.33
2023-10-13T12:28:27.738Z,25.77
2023-10-13T12:30:58.886Z,23.63
2023-10-13T12:33:38.318Z,28.80
2023-10-13T12:36:28.148Z,26.27
2023-10-13T12:39:07.658Z,25.63
2023-10-13T12:41:54.924Z,22.77
2023-10-13T12:44:41.032Z,24.02
2023-10-13T12:47:27.344Z,18.80
2023-10-13T12:50:09.628Z,16.73
2023-10-13T12:52:37.830Z,17.33
2023-10-13T12:55:11.362Z,17.35
2023-10-13T12:57:44.686Z,19.40
2023-10-13T13:00:27.066Z,18.58
2023-10-13T13:02:57.350Z,16.42
2023-10-13T13:05:30.013Z,19.73
2023-10-13T13:07:57.942Z,17.73
2023-10-13T13:10:36.574Z,17.48
2023-10-13T13:13:06.796Z,15.07
2023-10-13T13:15:34.761Z,12.63
2023-10-13T13:18:11.574Z,13.98
2023-10-13T13:20:54.936Z,13.98
2023-10-13T13:23:27.716Z,13.60
2023-10-13T13:28:29.954Z,11.77
2023-10-13T13:30:58.431Z,14.77
2023-10-13T13:33:27.337Z,11.27
2023-10-13T13:35:56.222Z,14.23
2023-10-13T13:38:28.629Z,11.73
2023-10-13T13:40:56.381Z,13.30
2023-10-13T13:43:39.818Z,15.25
2023-10-13T13:46:11.844Z,15.10
2023-10-13T13:48:42.315Z,17.42
2023-10-13T13:51:31.066Z,14.10
2023-10-13T13:54:00.568Z,15.95
2023-10-13T13:56:29.822Z,16.65
2023-10-13T13:58:58.642Z,14.65
2023-10-13T14:01:27.161Z,15.43
2023-10-13T14:03:58.383Z,16.88
2023-10-13T14:06:28.221Z,16.92
2023-10-13T14:08:58.537Z,15.30
2023-10-13T14:11:40.808Z,15.32
2023-10-13T14:14:13.575Z,14.55
2023-10-13T14:16:45.879Z,15.68
2023-10-13T14:19:13.989Z,14.45
2023-10-13T14:21:43.639Z,13.68
2023-10-13T14:24:19.781Z,14.40
2023-10-13T14:26:49.100Z,13.10
2023-10-13T14:29:17.533Z,12.07
2023-10-13T14:31:45.400Z,12.77
2023-10-13T14:34:13.509Z,12.77
2023-10-13T14:36:41.286Z,12.63
2023-10-13T14:39:10.535Z,13.05
2023-10-13T14:41:41.765Z,11.35
2023-10-13T14:44:10.489Z,12.57
2023-10-13T14:46:40.545Z,13.00
2023-10-13T14:49:08.613Z,12.68
2023-10-13T14:51:41.091Z,11.75
2023-10-13T14:56:36.494Z,10.23
2023-10-13T14:59:06.095Z,12.40
2023-10-13T15:01:34.170Z,9.18
2023-10-13T15:04:01.915Z,10.45
2023-10-13T15:06:30.117Z,12.50
2023-10-13T15:08:59.764Z,11.00
2023-10-13T15:11:28.746Z,11.38
2023-10-13T15:13:57.926Z,11.18
2023-10-13T15:16:30.654Z,12.30
2023-10-13T15:21:35.591Z,12.20
2023-10-13T15:24:24.603Z,11.18
2023-10-13T15:27:04.083Z,13.05
2023-10-13T15:29:38.658Z,12.40
2023-10-13T15:32:27.519Z,13.98
2023-10-13T15:34:55.876Z,11.13
2023-10-13T15:37:26.524Z,16.00
2023-10-13T15:39:59.053Z,10.10
2023-10-13T15:42:26.668Z,13.05
2023-10-13T15:44:54.341Z,15.02
2023-10-13T15:48:16.335Z,14.10
2023-10-13T15:50:16.531Z,13.85
2023-10-13T15:52:48.044Z,12.68
2023-10-13T15:55:18.873Z,13.07
2023-10-13T15:57:54.065Z,11.32
2023-10-13T16:00:25.684Z,10.65
2023-10-13T16:02:55.869Z,10.45
2023-10-13T16:05:30.427Z,10.40
2023-10-13T16:07:58.710Z,11.32
2023-10-13T16:10:28.126Z,11.77
2023-10-13T16:12:56.916Z,11.93
2023-10-13T16:15:24.890Z,10.80
2023-10-13T16:17:55.869Z,10.80
2023-10-13T16:20:25.933Z,10.25
2023-10-13T16:22:53.563Z,9.90
2023-10-13T16:25:22.406Z,9.20
2023-10-13T16:27:50.787Z,10.10
2023-10-13T16:30:20.868Z,9.18
2023-10-13T16:32:50.804Z,8.15
2023-10-13T16:35:19.904Z,9.95
2023-10-13T16:37:52.433Z,9.15
2023-10-13T16:40:21.473Z,9.67
2023-10-13T16:42:50.477Z,9.38
2023-10-13T16:45:24.710Z,11.32
2023-10-13T16:47:55.503Z,10.20
2023-10-13T16:50:23.644Z,12.63
2023-10-13T16:52:51.724Z,11.38
2023-10-13T16:55:21.109Z,10.88
2023-10-13T16:57:51.889Z,10.75
2023-10-13T17:00:27.018Z,10.48
2023-10-13T17:02:56.187Z,10.07
2023-10-13T17:05:28.885Z,9.93
2023-10-13T17:08:01.369Z,11.35
2023-10-13T17:10:32.585Z,10.37
2023-10-13T17:13:03.045Z,9.02
2023-10-13T17:15:34.870Z,9.02
2023-10-13T17:18:06.755Z,11.43
2023-10-13T17:20:39.717Z,8.77
2023-10-13T17:23:08.612Z,8.90
2023-10-13T17:25:37.844Z,10.30
2023-10-13T17:28:14.348Z,10.38
2023-10-13T17:30:50.649Z,10.55
2023-10-13T17:33:18.944Z,12.07
2023-10-13T17:35:47.022Z,10.40
2023-10-13T17:38:15.960Z,10.68
2023-10-13T17:40:43.910Z,9.82
2023-10-13T17:43:12.936Z,11.73
2023-10-13T17:45:41.159Z,12.15
2023-10-13T17:48:10.028Z,12.93
2023-10-13T17:50:38.209Z,9.98
2023-10-13T17:53:05.900Z,9.98
2023-10-13T17:55:34.182Z,9.90
2023-10-13T17:58:01.906Z,12.77
2023-10-13T18:00:29.675Z,13.00
2023-10-13T18:02:57.288Z,14.02
2023-10-13T18:05:24.792Z,14.38
2023-10-13T18:07:53.363Z,16.98
2023-10-13T18:10:21.064Z,16.08
2023-10-13T18:12:51.623Z,16.58
2023-10-13T18:15:22.321Z,18.58
2023-10-13T18:17:50.121Z,19.65
2023-10-13T18:20:21.811Z,19.90
2023-10-13T18:22:50.565Z,21.92
2023-10-13T18:25:25.546Z,25.52
2023-10-13T18:27:53.871Z,19.67
2023-10-13T18:30:23.246Z,19.92
2023-10-13T18:32:51.849Z,20.50
2023-10-13T18:35:20.103Z,21.33
2023-10-13T18:37:48.489Z,18.88
2023-10-13T18:40:17.495Z,18.40
2023-10-13T18:42:49.427Z,18.45
2023-10-13T18:45:29.338Z,18.33
2023-10-13T18:47:57.881Z,16.90
2023-10-13T18:50:25.938Z,17.92
2023-10-13T18:52:54.207Z,18.13
2023-10-13T18:55:22.241Z,16.60
2023-10-13T18:57:49.912Z,17.90
2023-10-13T19:00:23.706Z,19.70
2023-10-13T19:02:55.045Z,18.05
2023-10-13T19:05:23.165Z,18.45
2023-10-13T19:07:51.656Z,18.08
2023-10-13T19:10:19.780Z,19.20
2023-10-13T19:12:56.089Z,20.52
2023-10-13T19:15:26.581Z,19.95
2023-10-13T19:17:55.116Z,18.48
2023-10-13T19:20:22.856Z,17.40
2023-10-13T19:22:53.951Z,17.70
2023-10-13T19:25:25.636Z,17.42
2023-10-13T19:27:54.080Z,17.90
2023-10-13T19:30:22.588Z,17.50
2023-10-13T19:32:52.499Z,18.50
2023-10-13T19:35:22.702Z,17.30
2023-10-13T19:37:50.921Z,18.08
2023-10-13T19:40:19.231Z,18.10
2023-10-13T19:42:47.380Z,15.73
2023-10-13T19:45:15.095Z,16.23
2023-10-13T19:47:45.481Z,17.45
2023-10-13T19:50:20.643Z,16.75
2023-10-13T19:52:52.707Z,18.77
2023-10-13T19:55:21.014Z,19.27
2023-10-13T19:57:48.976Z,16.10
2023-10-13T20:00:23.134Z,16.25
2023-10-13T20:02:52.483Z,18.25
2023-10-13T20:05:23.954Z,17.27
2023-10-13T20:07:52.092Z,18.90
2023-10-13T20:10:20.437Z,17.42
2023-10-13T20:12:51.678Z,18.08
2023-10-13T20:15:19.831Z,17.15
2023-10-13T20:17:47.569Z,17.02
2023-10-13T20:20:18.227Z,17.08
2023-10-13T20:22:46.183Z,17.67
2023-10-13T20:25:15.518Z,16.48
2023-10-13T20:27:44.282Z,16.27
2023-10-13T20:30:13.297Z,15.85
2023-10-13T20:32:41.347Z,18.55
2023-10-13T20:35:09.537Z,17.77
2023-10-13T20:37:37.219Z,17.90
2023-10-13T20:40:19.407Z,17.48
2023-10-13T20:42:50.952Z,17.15
2023-10-13T20:45:25.579Z,18.67
2023-10-13T20:47:54.601Z,17.48
2023-10-13T20:50:23.914Z,17.25
2023-10-13T20:52:51.600Z,16.40
2023-10-13T20:55:23.196Z,17.45
2023-10-13T20:57:51.812Z,15.50
2023-10-13T21:00:26.080Z,17.05
2023-10-13T21:02:56.279Z,17.05
2023-10-13T21:05:24.899Z,17.00
2023-10-13T21:07:55.106Z,18.88
2023-10-13T21:10:22.852Z,17.77
2023-10-13T21:12:50.888Z,16.85
2023-10-13T21:15:19.951Z,18.38
2023-10-13T21:17:50.831Z,18.45
2023-10-13T21:20:18.473Z,19.38
2023-10-13T21:22:51.701Z,18.38
2023-10-13T21:25:28.646Z,18.63
2023-10-13T21:28:02.326Z,20.02
2023-10-13T21:30:32.426Z,18.60
2023-10-13T21:33:00.846Z,17.08
2023-10-13T21:35:33.499Z,19.50
2023-10-13T21:38:01.175Z,18.87
2023-10-13T21:40:30.205Z,18.20
2023-10-13T21:42:59.948Z,19.13
2023-10-13T21:45:30.667Z,19.30
2023-10-13T21:47:59.934Z,20.00
2023-10-13T21:50:28.476Z,18.80
2023-10-13T21:52:56.251Z,18.27
2023-10-13T21:55:27.946Z,18.60
2023-10-13T21:57:56.678Z,18.10
2023-10-13T22:00:28.355Z,18.85
2023-10-13T22:02:57.483Z,18.95
2023-10-13T22:05:25.326Z,19.90
2023-10-13T22:07:53.299Z,18.30
2023-10-13T22:10:20.919Z,19.50
2023-10-13T22:12:49.947Z,19.02
2023-10-13T22:15:19.562Z,18.35
2023-10-13T22:17:47.909Z,19.98
2023-10-13T22:20:16.148Z,18.88
2023-10-13T22:22:44.589Z,19.38
2023-10-13T22:25:15.252Z,19.85
2023-10-13T22:27:46.712Z,21.02
2023-10-13T22:30:19.365Z,21.00
2023-10-13T22:32:47.702Z,20.88
2023-10-13T22:35:21.757Z,20.83
2023-10-13T22:37:53.782Z,20.15
2023-10-13T22:40:23.423Z,20.25
2023-10-13T22:42:53.821Z,19.83
2023-10-13T22:45:23.616Z,19.98
2023-10-13T22:47:58.062Z,21.92
2023-10-13T22:50:26.298Z,21.60
2023-10-13T22:52:58.157Z,21.08
2023-10-13T22:55:29.013Z,19.17
2023-10-13T22:57:58.283Z,19.73
2023-10-13T23:00:45.727Z,19.58
2023-10-13T23:03:14.511Z,20.42
2023-10-13T23:06:03.876Z,19.45
2023-10-13T23:08:36.429Z,18.95
2023-10-13T23:11:16.689Z,19.13
2023-10-13T23:13:52.169Z,19.00
2023-10-13T23:16:24.958Z,18.75
2023-10-13T23:19:06.896Z,16.97
2023-10-13T23:21:38.928Z,18.20
2023-10-13T23:24:10.979Z,18.08
2023-10-13T23:26:39.906Z,18.02
2023-10-13T23:29:11.414Z,18.10
2023-10-13T23:31:40.154Z,18.92
2023-10-13T23:34:08.007Z,18.73
2023-10-13T23:36:35.763Z,17.58
2023-10-13T23:39:12.719Z,18.25
2023-10-13T23:41:43.500Z,19.15
2023-10-13T23:44:18.637Z,18.02
2023-10-13T23:46:46.534Z,17.60
2023-10-13T23:49:20.026Z,19.50
2023-10-13T23:51:54.720Z,18.58
2023-10-13T23:54:22.921Z,18.52
2023-10-13T23:56:52.629Z,17.25
2023-10-13T23:59:27.833Z,17.83
